Time;durP1;ratioP1;P1;durP2;ratioP2;P2;SDS_P1;SDS_P2;PMS_P1;PMS_P2;Temp;Humidity;BMP_temperature;BMP_pressure;BME280_temperature;BME280_humidity;BME280_pressure;Samples;Min_cycle;Max_cycle;Signal;HPM_P1;HPM_P2
2023/05/11 00:01:43;;;;;;;1.70;0.60;;;;;;;11.07;81.76;95383.44;6132774;23;20209;-85
2023/05/11 00:04:08;;;;;;;0.60;0.60;;;;;;;11.01;82.03;95386.63;6158267;23;20183;-86
2023/05/11 00:06:34;;;;;;;1.67;0.70;;;;;;;11.00;82.22;95383.22;6159045;23;20163;-84
2023/05/11 00:08:59;;;;;;;0.93;0.50;;;;;;;11.05;82.01;95378.38;6108953;23;20159;-85
2023/05/11 00:11:25;;;;;;;1.20;0.77;;;;;;;11.00;82.43;95385.81;6159458;23;20159;-86
2023/05/11 00:13:50;;;;;;;0.80;0.70;;;;;;;10.96;82.86;95376.72;6133293;23;20147;-83
2023/05/11 00:16:15;;;;;;;1.10;0.70;;;;;;;10.95;82.82;95379.44;6157921;23;20206;-85
2023/05/11 00:18:40;;;;;;;0.60;0.60;;;;;;;10.88;82.88;95379.25;6106973;23;20435;-86
2023/05/11 00:21:06;;;;;;;0.93;0.70;;;;;;;10.92;83.11;95380.56;6133540;23;20182;-84
2023/05/11 00:23:31;;;;;;;1.83;0.90;;;;;;;10.82;83.32;95384.25;6158466;23;20171;-84
2023/05/11 00:25:57;;;;;;;1.57;1.47;;;;;;;10.78;83.61;95389.75;6131908;23;20854;-84
2023/05/11 00:28:22;;;;;;;0.50;0.50;;;;;;;10.80;83.93;95379.22;6158009;23;20163;-84
2023/05/11 00:30:47;;;;;;;0.90;0.63;;;;;;;10.68;84.07;95377.81;6157317;23;20179;-85
2023/05/11 00:33:13;;;;;;;0.87;0.60;;;;;;;10.72;83.95;95381.75;6133652;23;20564;-84
2023/05/11 00:35:38;;;;;;;0.60;0.60;;;;;;;10.77;84.53;95379.50;6159060;23;20158;-85
2023/05/11 00:38:04;;;;;;;1.90;0.70;;;;;;;10.82;84.20;95381.66;6132866;23;20159;-85
2023/05/11 00:40:33;;;;;;;0.80;0.70;;;;;;;10.87;83.93;95372.44;6159956;23;20185;-84
2023/05/11 00:42:58;;;;;;;2.10;0.70;;;;;;;10.91;83.88;95365.94;6133251;23;20182;-85
2023/05/11 00:45:24;;;;;;;0.93;0.67;;;;;;;10.94;83.59;95370.03;6159738;23;20151;-85
2023/05/11 00:47:50;;;;;;;2.63;0.80;;;;;;;10.89;84.16;95369.69;6131291;23;20677;-84
2023/05/11 00:50:17;;;;;;;2.00;0.70;;;;;;;10.94;84.11;95367.41;6130759;23;20179;-83
2023/05/11 00:52:42;;;;;;;1.30;0.70;;;;;;;10.91;84.34;95370.34;6106922;23;20178;-82
2023/05/11 00:55:09;;;;;;;2.50;0.70;;;;;;;10.84;84.23;95367.53;6133152;23;20215;-84
2023/05/11 00:57:35;;;;;;;2.13;0.80;;;;;;;10.85;84.54;95376.94;6154955;23;20155;-85
2023/05/11 01:00:05;;;;;;;0.80;0.80;;;;;;;10.81;84.60;95369.63;6179848;23;20182;-84
2023/05/11 01:02:31;;;;;;;1.40;0.80;;;;;;;10.69;85.33;95361.25;6199876;23;20158;-82
2023/05/11 01:04:56;;;;;;;1.10;0.80;;;;;;;10.66;85.41;95358.97;6184798;23;20173;-82
2023/05/11 01:07:32;;;;;;;1.27;0.80;;;;;;;10.68;85.81;95364.81;6209126;23;20209;-82
2023/05/11 01:10:19;;;;;;;0.70;0.70;;;;;;;10.69;85.78;95366.44;6189288;23;20782;-83
2023/05/11 01:12:56;;;;;;;2.77;0.97;;;;;;;10.84;85.09;95367.53;6185857;23;20545;-86
2023/05/11 01:15:38;;;;;;;1.87;1.10;;;;;;;10.73;85.49;95363.41;6159391;23;20151;-85
2023/05/11 01:18:27;;;;;;;1.30;1.20;;;;;;;10.75;85.40;95371.84;6160072;23;20216;-86
2023/05/11 01:20:57;;;;;;;1.00;0.90;;;;;;;10.76;85.33;95364.88;6158460;23;20175;-86
2023/05/11 01:23:43;;;;;;;1.93;1.37;;;;;;;10.65;85.65;95367.75;6185753;23;20174;-87
2023/05/11 01:26:28;;;;;;;1.33;1.23;;;;;;;10.74;85.40;95364.22;6186222;23;20139;-85
2023/05/11 01:29:11;;;;;;;1.40;1.30;;;;;;;10.68;85.41;95364.81;6161147;23;20792;-86
2023/05/11 01:31:39;;;;;;;2.27;1.60;;;;;;;10.65;85.80;95365.16;6185421;23;20154;-85
2023/05/11 01:34:16;;;;;;;2.10;1.40;;;;;;;10.72;85.16;95363.56;6160930;23;20150;-87
2023/05/11 01:37:05;;;;;;;1.57;1.37;;;;;;;10.71;85.89;95360.16;6160172;23;20181;-85
2023/05/11 01:39:36;;;;;;;1.90;1.10;;;;;;;10.66;85.97;95358.97;6174124;23;20182;-85
2023/05/11 01:42:08;;;;;;;1.60;1.40;;;;;;;10.69;85.85;95358.66;6185312;23;20620;-84
2023/05/11 01:44:35;;;;;;;1.37;1.27;;;;;;;10.66;85.84;95358.97;6162219;23;20139;-85
2023/05/11 01:47:01;;;;;;;1.00;1.00;;;;;;;10.68;86.21;95364.81;6136425;23;20190;-86
2023/05/11 01:49:26;;;;;;;1.70;1.30;;;;;;;10.72;86.24;95358.38;6162535;23;20253;-85
2023/05/11 01:51:52;;;;;;;1.90;1.30;;;;;;;10.73;85.82;95365.19;6188913;23;20174;-84
2023/05/11 01:54:20;;;;;;;1.87;1.30;;;;;;;10.75;86.12;95366.66;6162740;23;20147;-84
2023/05/11 01:56:46;;;;;;;1.30;1.20;;;;;;;10.72;86.01;95364.38;6161767;23;20189;-85
2023/05/11 01:59:13;;;;;;;1.73;1.27;;;;;;;10.63;85.97;95361.88;6187846;23;20170;-85
2023/05/11 02:01:39;;;;;;;1.90;1.70;;;;;;;10.67;86.21;95364.00;6188261;23;20163;-84
2023/05/11 02:04:04;;;;;;;3.13;1.47;;;;;;;10.55;86.33;95361.84;6163704;23;20210;-85
2023/05/11 02:06:31;;;;;;;2.60;1.93;;;;;;;10.57;86.09;95359.91;6189591;23;20480;-86
2023/05/11 02:08:58;;;;;;;2.83;1.73;;;;;;;10.55;86.49;95361.84;6162450;23;20162;-86
2023/05/11 02:11:25;;;;;;;1.50;1.40;;;;;;;10.44;86.68;95360.31;6162969;23;20185;-87
2023/05/11 02:13:51;;;;;;;3.87;1.50;;;;;;;10.55;86.35;95364.44;6188850;23;20547;-84
2023/05/11 02:16:17;;;;;;;1.70;1.23;;;;;;;10.53;87.26;95363.78;6187963;23;20150;-83
2023/05/11 02:18:43;;;;;;;3.73;1.43;;;;;;;10.55;86.71;95359.25;6189655;23;20217;-86
2023/05/11 02:21:09;;;;;;;1.67;1.27;;;;;;;10.58;86.63;95358.91;6162876;23;20178;-84
2023/05/11 02:23:35;;;;;;;2.13;1.33;;;;;;;10.57;86.28;95370.28;6162115;23;20209;-87
2023/05/11 02:26:02;;;;;;;1.90;1.30;;;;;;;10.61;86.63;95369.84;6186584;23;20154;-86
2023/05/11 02:28:27;;;;;;;3.53;1.20;;;;;;;10.66;86.43;95377.16;6161103;23;20155;-85
2023/05/11 02:30:54;;;;;;;1.50;1.30;;;;;;;10.57;86.71;95367.69;6136557;23;20285;-83
2023/05/11 02:33:25;;;;;;;2.07;1.20;;;;;;;10.63;86.49;95369.69;6161747;23;20186;-86
2023/05/11 02:35:54;;;;;;;2.90;1.20;;;;;;;10.55;86.54;95373.03;6161288;23;20170;-82
2023/05/11 02:38:19;;;;;;;1.33;1.13;;;;;;;10.56;86.36;95373.84;6162005;23;20158;-85
2023/05/11 02:40:47;;;;;;;1.60;1.50;;;;;;;10.64;86.36;95368.72;6160988;23;20500;-84
2023/05/11 02:43:17;;;;;;;1.43;1.00;;;;;;;10.60;86.21;95368.22;6161063;23;20174;-87
2023/05/11 02:45:44;;;;;;;3.00;1.40;;;;;;;10.62;86.02;95368.06;6161615;23;20168;-85
2023/05/11 02:48:21;;;;;;;4.97;1.80;;;;;;;10.63;85.70;95372.28;6161691;23;20155;-85
2023/05/11 02:50:47;;;;;;;1.60;1.50;;;;;;;10.61;86.15;95364.66;6188365;23;20174;-85
2023/05/11 02:53:16;;;;;;;1.70;1.07;;;;;;;10.60;86.15;95370.81;6137061;23;20197;-86
2023/05/11 02:55:41;;;;;;;2.23;1.50;;;;;;;10.64;86.34;95371.31;6160805;23;20209;-85
2023/05/11 02:58:07;;;;;;;2.13;1.47;;;;;;;10.65;86.28;95367.75;6160233;23;20147;-85
2023/05/11 03:00:33;;;;;;;2.73;1.23;;;;;;;10.63;86.23;95362.72;6160626;23;20193;-86
2023/05/11 03:02:58;;;;;;;2.57;1.43;;;;;;;10.59;85.93;95363.16;6160961;23;20252;-86
2023/05/11 03:05:24;;;;;;;1.97;1.40;;;;;;;10.66;86.19;95364.16;6160048;23;20671;-86
2023/05/11 03:07:51;;;;;;;3.73;1.50;;;;;;;10.60;86.43;95360.41;6158923;23;20167;-84
2023/05/11 03:10:16;;;;;;;1.80;1.37;;;;;;;10.65;86.26;95371.16;6159284;23;20229;-86
2023/05/11 03:12:42;;;;;;;1.30;1.20;;;;;;;10.65;86.59;95365.97;6186197;23;20150;-86
2023/05/11 03:15:10;;;;;;;4.13;1.27;;;;;;;10.64;86.55;95360.91;6161336;23;20187;-85
2023/05/11 03:17:36;;;;;;;2.10;1.23;;;;;;;10.68;86.33;95363.03;6160691;23;20501;-86
2023/05/11 03:20:02;;;;;;;2.67;1.27;;;;;;;10.66;86.39;95364.16;6186434;23;20171;-86
2023/05/11 03:22:28;;;;;;;2.50;1.40;;;;;;;10.66;86.35;95369.38;6184577;23;20280;-86
2023/05/11 03:24:54;;;;;;;1.63;1.23;;;;;;;10.63;86.69;95365.31;6186171;23;20234;-85
2023/05/11 03:27:20;;;;;;;1.93;1.30;;;;;;;10.64;86.49;95360.91;6158698;23;20226;-84
2023/05/11 03:29:46;;;;;;;2.80;1.23;;;;;;;10.67;86.45;95360.59;6186016;23;20220;-86
2023/05/11 03:32:11;;;;;;;1.77;1.30;;;;;;;10.61;86.56;95366.44;6160138;23;20193;-86
2023/05/11 03:34:36;;;;;;;1.90;1.40;;;;;;;10.64;86.36;95355.72;6186040;23;20254;-86
2023/05/11 03:37:04;;;;;;;2.60;1.20;;;;;;;10.66;86.50;95359.78;6158940;23;20162;-85
2023/05/11 03:39:30;;;;;;;2.20;1.50;;;;;;;10.65;86.58;95359.94;6159454;23;20175;-85
2023/05/11 03:41:56;;;;;;;1.50;1.27;;;;;;;10.63;86.63;95356.69;6159855;23;20158;-85
2023/05/11 03:44:21;;;;;;;2.33;1.70;;;;;;;10.62;86.78;95365.47;6161573;23;20197;-84
2023/05/11 03:46:49;;;;;;;1.83;1.40;;;;;;;10.63;86.81;95357.50;6160855;23;20155;-85
2023/05/11 03:49:15;;;;;;;2.23;1.67;;;;;;;10.65;86.87;95355.56;6160212;23;20617;-84
2023/05/11 03:51:40;;;;;;;2.27;1.13;;;;;;;10.65;86.41;95354.75;6159076;23;20158;-86
2023/05/11 03:54:06;;;;;;;6.43;1.73;;;;;;;10.60;87.13;95359.56;6185370;23;20158;-86
2023/05/11 03:56:35;;;;;;;2.00;1.90;;;;;;;10.61;86.85;95356.03;6183394;23;20159;-85
2023/05/11 03:59:01;;;;;;;2.40;1.63;;;;;;;10.47;87.37;95345.22;6159624;23;20174;-86
2023/05/11 04:01:26;;;;;;;2.13;1.40;;;;;;;10.54;87.27;95353.22;6184027;23;20480;-87
2023/05/11 04:03:52;;;;;;;2.77;1.60;;;;;;;10.53;86.86;95349.00;6159543;23;20182;-86
2023/05/11 04:06:18;;;;;;;1.93;1.70;;;;;;;10.57;86.98;95352.91;6182435;23;20620;-84
2023/05/11 04:08:43;;;;;;;2.60;1.50;;;;;;;10.62;86.91;95355.88;6134554;23;20620;-85
2023/05/11 04:11:09;;;;;;;1.67;1.30;;;;;;;10.60;87.04;95352.63;6159912;23;20202;-83
2023/05/11 04:13:34;;;;;;;2.70;1.30;;;;;;;10.63;87.08;95346.31;6186433;23;20596;-85
2023/05/11 04:15:59;;;;;;;2.30;2.10;;;;;;;10.61;86.63;95349.06;6184213;23;20670;-84
2023/05/11 04:18:25;;;;;;;2.13;1.70;;;;;;;10.61;87.07;95351.66;6159637;23;20162;-86
2023/05/11 04:20:50;;;;;;;2.93;1.70;;;;;;;10.63;87.11;95346.31;6184007;23;20182;-86
2023/05/11 04:23:15;;;;;;;1.60;1.50;;;;;;;10.59;87.07;95348.38;6184163;23;20178;-84
2023/05/11 04:36:48;;;;;;;2.90;1.97;;;;;;;10.68;86.33;95344.88;6120132;23;20182;-82
2023/05/11 04:39:15;;;;;;;2.90;1.73;;;;;;;10.59;86.56;95347.56;6164763;23;20641;-84
2023/05/11 04:41:41;;;;;;;2.23;1.93;;;;;;;10.71;86.46;95341.97;6166644;23;20162;-85
2023/05/11 04:44:06;;;;;;;2.73;2.47;;;;;;;10.76;86.09;95346.69;6166019;23;20630;-86
2023/05/11 04:46:31;;;;;;;5.57;3.43;;;;;;;10.82;86.57;95347.88;6217207;23;20162;-84
2023/05/11 04:48:57;;;;;;;6.17;3.10;;;;;;;10.82;86.23;95343.50;6191148;23;20150;-86
2023/05/11 04:51:22;;;;;;;3.13;2.43;;;;;;;10.85;86.42;95350.16;6190730;23;20185;-86
2023/05/11 04:53:50;;;;;;;2.90;2.10;;;;;;;10.91;86.23;95346.97;6192959;23;20146;-86
2023/05/11 04:56:16;;;;;;;3.93;2.30;;;;;;;10.95;86.14;95348.25;6166791;23;20158;-85
2023/05/11 04:58:42;;;;;;;2.90;2.40;;;;;;;10.94;86.17;95347.44;6191063;23;20254;-84
2023/05/11 05:01:07;;;;;;;3.73;1.90;;;;;;;10.99;86.12;95350.41;6191352;23;20180;-85
2023/05/11 05:03:32;;;;;;;2.67;2.40;;;;;;;10.95;86.21;95356.88;6165603;23;20221;-85
2023/05/11 05:05:57;;;;;;;5.13;2.37;;;;;;;11.05;85.94;95355.00;6215726;23;20470;-86
2023/05/11 05:08:23;;;;;;;6.83;3.40;;;;;;;11.03;85.53;95353.50;6164472;23;20158;-85
2023/05/11 05:10:48;;;;;;;6.10;3.20;;;;;;;11.06;85.80;95358.41;6188323;23;20269;-84
2023/05/11 05:13:15;;;;;;;4.63;2.63;;;;;;;11.04;85.89;95365.53;6188494;23;20154;-85
2023/05/11 05:15:41;;;;;;;3.90;1.90;;;;;;;11.02;86.15;95355.28;6213917;23;20150;-83
2023/05/11 05:18:06;;;;;;;1.93;1.77;;;;;;;11.09;86.00;95352.09;6213830;23;20253;-85
2023/05/11 05:20:31;;;;;;;3.30;1.73;;;;;;;11.18;85.85;95361.53;6190588;23;20321;-84
2023/05/11 05:22:57;;;;;;;4.13;2.13;;;;;;;11.21;85.60;95362.03;6215744;23;20212;-84
2023/05/11 05:25:23;;;;;;;1.87;1.60;;;;;;;11.23;84.82;95362.72;6215162;23;20490;-85
2023/05/11 05:27:48;;;;;;;2.93;1.60;;;;;;;11.30;85.16;95362.88;6163361;23;20276;-85
2023/05/11 05:30:13;;;;;;;4.33;2.37;;;;;;;11.33;85.56;95365.19;6189115;23;20186;-83
2023/05/11 05:32:39;;;;;;;2.73;2.47;;;;;;;11.36;84.95;95367.47;6165726;23;20209;-83
2023/05/11 05:35:04;;;;;;;4.17;2.93;;;;;;;11.36;84.37;95372.66;6192819;23;20169;-85
2023/05/11 05:37:30;;;;;;;6.40;2.80;;;;;;;11.37;84.96;95374.28;6186948;23;20201;-83
2023/05/11 05:39:55;;;;;;;2.50;2.30;;;;;;;11.42;83.64;95364.25;6189367;23;20177;-83
2023/05/11 05:42:21;;;;;;;6.87;3.37;;;;;;;11.51;83.58;95371.09;6164371;23;20167;-83
2023/05/11 05:44:46;;;;;;;4.93;3.20;;;;;;;11.43;82.98;95370.25;6165416;23;20185;-85
2023/05/11 05:47:12;;;;;;;5.67;2.97;;;;;;;11.53;82.99;95369.16;6209746;23;20171;-85
2023/05/11 05:49:37;;;;;;;3.27;2.47;;;;;;;11.53;82.64;95368.34;6188463;23;20265;-84
2023/05/11 05:52:02;;;;;;;2.90;2.20;;;;;;;11.59;83.00;95370.31;6162322;23;20173;-85
2023/05/11 05:54:28;;;;;;;2.73;2.33;;;;;;;11.67;82.65;95374.75;6165760;23;20637;-80
2023/05/11 05:56:53;;;;;;;3.23;2.30;;;;;;;11.76;82.78;95377.19;6164975;23;20668;-81
2023/05/11 05:59:22;;;;;;;3.00;2.70;;;;;;;11.71;82.16;95376.03;6192216;23;20228;-81
2023/05/11 06:01:47;;;;;;;6.73;3.30;;;;;;;11.75;82.12;95375.56;6185746;23;20161;-84
2023/05/11 06:04:13;;;;;;;6.30;3.60;;;;;;;11.79;81.99;95376.88;6161593;23;20265;-85
2023/05/11 06:06:38;;;;;;;5.73;3.50;;;;;;;11.82;82.11;95373.16;6211451;23;20676;-83
2023/05/11 06:09:03;;;;;;;5.43;2.70;;;;;;;11.77;80.92;95371.03;6163853;23;20596;-83
2023/05/11 06:11:29;;;;;;;3.63;2.40;;;;;;;11.60;80.94;95369.34;6162449;23;20890;-85
2023/05/11 06:13:54;;;;;;;3.10;2.03;;;;;;;11.72;81.11;95373.28;6157383;23;20159;-83
2023/05/11 06:16:19;;;;;;;3.60;2.40;;;;;;;11.71;80.62;95376.84;6161504;23;20162;-83
2023/05/11 06:18:45;;;;;;;3.27;2.10;;;;;;;11.72;80.42;95372.47;6186763;23;20185;-82
2023/05/11 06:21:10;;;;;;;2.97;2.30;;;;;;;11.82;80.36;95378.38;6162338;23;20182;-84
2023/05/11 06:23:35;;;;;;;4.17;2.17;;;;;;;11.96;79.72;95375.16;6161530;23;20613;-83
2023/05/11 06:26:01;;;;;;;3.47;2.10;;;;;;;11.88;80.07;95370.75;6185861;23;20154;-84
2023/05/11 06:28:26;;;;;;;3.67;2.20;;;;;;;11.88;79.71;95375.94;6161652;23;20151;-84
2023/05/11 06:30:57;;;;;;;2.50;2.10;;;;;;;11.97;79.69;95371.56;6162667;23;20236;-84
2023/05/11 06:33:22;;;;;;;2.20;2.10;;;;;;;12.01;79.65;95378.06;6188988;23;20162;-83
2023/05/11 06:35:47;;;;;;;3.80;2.00;;;;;;;12.06;78.98;95370.59;6163424;23;20143;-83
2023/05/11 06:38:13;;;;;;;3.67;2.93;;;;;;;12.17;78.65;95370.28;6188633;23;20240;-84
2023/05/11 06:40:38;;;;;;;2.30;2.10;;;;;;;12.18;78.25;95369.31;6162872;23;20205;-82
2023/05/11 06:43:03;;;;;;;2.70;2.00;;;;;;;12.30;77.50;95375.03;6163695;23;20243;-84
2023/05/11 06:45:28;;;;;;;5.40;2.50;;;;;;;12.26;77.56;95373.72;6186804;23;20177;-83
2023/05/11 06:47:54;;;;;;;3.23;1.97;;;;;;;12.38;77.64;95374.22;6161131;23;20158;-83
2023/05/11 06:50:19;;;;;;;3.50;2.10;;;;;;;12.39;77.58;95375.84;6188046;23;20174;-82
2023/05/11 06:52:55;;;;;;;2.93;1.70;;;;;;;12.38;76.69;95371.63;6163332;23;20159;-82
2023/05/11 06:55:24;;;;;;;4.40;1.70;;;;;;;12.43;76.18;95371.94;6163616;23;20162;-85
2023/05/11 06:57:52;;;;;;;2.30;1.50;;;;;;;12.28;76.39;95373.53;6187631;23;20559;-84
2023/05/11 07:00:17;;;;;;;2.50;2.03;;;;;;;12.38;76.28;95375.03;6188540;23;20253;-84
2023/05/11 07:02:50;;;;;;;3.60;1.73;;;;;;;12.43;76.04;95371.94;6163612;23;20189;-84
2023/05/11 07:05:15;;;;;;;2.40;1.90;;;;;;;12.49;76.32;95368.69;6191858;23;20135;-86
2023/05/11 07:07:43;;;;;;;2.17;1.77;;;;;;;12.42;75.75;95367.69;6189065;23;20181;-82
2023/05/11 07:10:09;;;;;;;3.03;1.80;;;;;;;12.56;76.00;95376.66;6189924;23;20225;-84
2023/05/11 07:12:34;;;;;;;1.87;1.50;;;;;;;12.69;75.70;95374.34;6164354;23;20508;-86
2023/05/11 07:14:59;;;;;;;2.20;2.00;;;;;;;12.54;75.59;95376.81;6188750;23;20589;-86
2023/05/11 07:17:27;;;;;;;2.57;1.87;;;;;;;12.61;74.84;95379.56;6159893;23;20158;-86
2023/05/11 07:19:55;;;;;;;1.90;1.70;;;;;;;12.56;75.27;95377.47;6191376;23;20182;-85
2023/05/11 07:22:23;;;;;;;2.17;1.33;;;;;;;12.75;75.01;95382.34;6165120;23;20158;-83
2023/05/11 07:24:51;;;;;;;2.00;1.80;;;;;;;12.71;75.57;95377.59;6190838;23;20597;-85
2023/05/11 07:27:16;;;;;;;1.73;1.50;;;;;;;12.86;74.83;95382.97;6212320;23;20158;-85
2023/05/11 07:29:49;;;;;;;2.23;1.73;;;;;;;12.84;74.69;95385.75;6163028;23;20257;-84
2023/05/11 07:32:14;;;;;;;4.07;1.93;;;;;;;12.89;74.27;95382.63;6215133;23;20131;-84
2023/05/11 07:34:40;;;;;;;2.23;2.03;;;;;;;13.09;73.75;95389.13;6190223;23;20261;-84
2023/05/11 07:37:07;;;;;;;1.93;1.70;;;;;;;12.56;73.42;95389.69;6165016;23;20170;-85
2023/05/11 07:39:32;;;;;;;1.33;1.23;;;;;;;12.64;73.76;95390.50;6163647;23;20179;-84
2023/05/11 07:42:00;;;;;;;3.97;1.87;;;;;;;12.82;74.42;95392.13;6188734;23;20217;-84
2023/05/11 07:44:26;;;;;;;2.87;1.70;;;;;;;12.97;73.36;95398.25;6188928;23;20177;-85
2023/05/11 07:46:53;;;;;;;1.77;1.47;;;;;;;13.08;72.84;95390.09;6189020;23;20159;-85
2023/05/11 07:49:19;;;;;;;2.30;1.60;;;;;;;12.71;73.57;95396.66;6188544;23;20217;-84
2023/05/11 07:51:44;;;;;;;2.27;1.57;;;;;;;12.96;73.32;95400.06;6187379;23;20158;-85
2023/05/11 07:54:09;;;;;;;5.17;1.40;;;;;;;12.70;73.84;95400.25;6187122;23;20535;-85
2023/05/11 07:56:35;;;;;;;2.20;1.97;;;;;;;12.93;72.67;95399.56;6184848;23;20151;-84
2023/05/11 07:59:00;;;;;;;2.73;1.50;;;;;;;13.01;72.61;95400.38;6186322;23;20162;-84
2023/05/11 08:01:25;;;;;;;2.10;1.63;;;;;;;13.28;72.64;95393.19;6186375;23;20155;-86
2023/05/11 08:03:51;;;;;;;1.77;1.67;;;;;;;13.29;70.76;95398.22;6186046;23;20605;-85
2023/05/11 08:06:16;;;;;;;1.53;1.43;;;;;;;13.18;71.91;95397.75;6185367;23;20170;-83
2023/05/11 08:08:42;;;;;;;1.90;1.63;;;;;;;13.41;71.76;95401.25;6160899;23;20166;-83
2023/05/11 08:11:07;;;;;;;2.10;1.50;;;;;;;13.65;71.75;95397.75;6185236;23;20182;-84
2023/05/11 08:13:33;;;;;;;2.23;1.40;;;;;;;13.62;70.32;95398.09;6188333;23;20199;-84
2023/05/11 08:15:58;;;;;;;1.80;1.70;;;;;;;13.67;71.47;95397.59;6185120;23;20241;-84
2023/05/11 08:18:23;;;;;;;1.40;1.30;;;;;;;13.54;72.06;95392.91;6186206;23;20155;-85
2023/05/11 08:20:49;;;;;;;2.33;1.93;;;;;;;13.47;72.31;95391.97;6160450;23;20182;-84
2023/05/11 08:23:17;;;;;;;1.83;1.40;;;;;;;13.87;72.10;95388.38;6188190;23;20181;-85
2023/05/11 08:25:54;;;;;;;2.13;1.60;;;;;;;13.98;69.17;95392.38;6188379;23;20648;-85
2023/05/11 08:28:22;;;;;;;1.77;1.60;;;;;;;14.09;69.21;95398.00;6186108;23;20157;-85
2023/05/11 08:30:57;;;;;;;1.80;1.70;;;;;;;14.06;66.37;95400.16;6186186;23;20178;-84
2023/05/11 08:33:24;;;;;;;1.77;1.67;;;;;;;14.00;66.86;95404.28;6161981;23;20224;-83
2023/05/11 08:35:52;;;;;;;2.57;1.20;;;;;;;13.78;66.50;95405.88;6161898;23;20165;-84
2023/05/11 08:38:18;;;;;;;2.43;1.27;;;;;;;13.85;65.94;95398.94;6186938;23;20261;-83
2023/05/11 08:40:47;;;;;;;1.33;1.20;;;;;;;13.49;67.97;95403.03;6187572;23;20548;-85
2023/05/11 08:43:14;;;;;;;2.93;1.20;;;;;;;13.71;67.86;95398.88;6189745;23;20225;-84
2023/05/11 08:45:46;;;;;;;1.60;1.40;;;;;;;13.88;68.50;95403.03;6186899;23;20167;-83
2023/05/11 08:48:14;;;;;;;1.47;1.37;;;;;;;13.89;68.12;95394.22;6186275;23;20166;-83
2023/05/11 08:50:40;;;;;;;2.07;1.60;;;;;;;13.48;68.92;95404.03;6159867;23;20182;-80
2023/05/11 08:53:05;;;;;;;2.03;1.17;;;;;;;13.72;66.92;95403.13;6182937;23;20561;-84
2023/05/11 08:55:32;;;;;;;1.30;1.20;;;;;;;13.84;68.07;95392.13;6158382;23;20238;-85
2023/05/11 08:57:59;;;;;;;1.43;1.10;;;;;;;13.89;67.94;95397.66;6206995;23;20589;-83
2023/05/11 09:00:25;;;;;;;1.67;1.20;;;;;;;13.82;66.73;95396.69;6157725;23;20186;-84
2023/05/11 09:02:51;;;;;;;1.57;1.30;;;;;;;14.02;65.97;95397.06;6157307;23;20901;-82
2023/05/11 09:05:16;;;;;;;1.60;1.20;;;;;;;14.14;65.62;95397.50;6182172;23;20580;-82
2023/05/11 09:07:57;;;;;;;1.70;1.07;;;;;;;14.11;66.81;95398.66;6157577;23;20181;-82
2023/05/11 09:10:25;;;;;;;1.50;1.40;;;;;;;14.20;65.75;95407.25;6179779;23;20265;-83
2023/05/11 09:12:56;;;;;;;2.10;1.40;;;;;;;14.12;66.79;95402.06;6157254;23;20193;-82
2023/05/11 09:15:39;;;;;;;3.03;1.57;;;;;;;14.18;66.86;95404.81;6182304;23;20678;-81
2023/05/11 09:18:34;;;;;;;1.70;1.27;;;;;;;14.14;67.24;95400.13;6150129;23;20159;-82
2023/05/11 09:21:47;;;;;;;;;;;;;;;;;;;;;
2023/05/11 09:24:49;;;;;;;1.30;1.17;;;;;;;14.05;67.16;95396.75;6120870;23;20274;-82
2023/05/11 09:27:47;;;;;;;3.13;1.37;;;;;;;14.01;69.38;95395.44;6119519;23;20162;-82
2023/05/11 09:30:28;;;;;;;2.43;1.63;;;;;;;14.28;68.44;95401.97;6097343;23;20184;-82
2023/05/11 09:32:55;;;;;;;1.70;1.57;;;;;;;14.43;66.62;95405.47;6121403;23;20187;-80
2023/05/11 09:35:41;;;;;;;3.30;1.60;;;;;;;14.50;67.54;95404.81;6121672;23;20166;-81
2023/05/11 09:38:19;;;;;;;4.60;1.50;;;;;;;14.60;68.70;95400.97;6112159;23;20297;-81
2023/05/11 09:40:52;;;;;;;1.60;1.37;;;;;;;14.58;68.86;95397.72;6107414;23;20226;-84
2023/05/11 09:43:23;;;;;;;2.07;1.60;;;;;;;14.34;68.53;95401.28;6158360;23;20201;-85
2023/05/11 09:45:50;;;;;;;3.37;1.53;;;;;;;14.15;67.39;95401.75;6157789;23;20155;-83
2023/05/11 09:48:15;;;;;;;3.83;1.60;;;;;;;14.13;67.41;95399.31;6114904;23;20181;-84
2023/05/11 09:50:41;;;;;;;2.50;1.87;;;;;;;13.70;69.08;95395.47;6164480;23;20182;-82
2023/05/11 09:53:33;;;;;;;2.23;1.90;;;;;;;13.76;71.27;95388.72;6163653;23;20193;-83
2023/05/11 09:56:46;;;;;;;2.03;1.83;;;;;;;13.72;71.14;95395.28;6191871;23;20162;-85
2023/05/11 09:59:17;;;;;;;2.20;2.00;;;;;;;14.00;69.89;95396.44;6192245;23;20139;-84
2023/05/11 10:01:48;;;;;;;2.60;1.90;;;;;;;14.16;70.49;95393.72;6164470;23;20176;-85
2023/05/11 10:04:14;;;;;;;4.83;2.10;;;;;;;14.12;70.81;95397.66;6165107;23;20171;-83
2023/05/11 10:06:46;;;;;;;2.63;2.07;;;;;;;14.40;68.67;95403.22;6138676;23;20190;-83
2023/05/11 10:09:12;;;;;;;2.70;2.37;;;;;;;13.88;69.09;95397.81;6165315;23;20165;-84
2023/05/11 10:11:44;;;;;;;3.47;1.90;;;;;;;13.58;72.29;95402.03;6165216;23;20158;-83
2023/05/11 10:14:15;;;;;;;3.60;2.87;;;;;;;13.77;70.54;95400.78;6140178;23;20606;-85
2023/05/11 10:16:41;;;;;;;2.97;2.73;;;;;;;13.80;70.46;95393.44;6139819;23;20163;-83
2023/05/11 10:19:28;;;;;;;3.30;2.60;;;;;;;13.83;70.70;95395.72;6138238;23;20168;-89
2023/05/11 10:21:56;;;;;;;2.93;2.63;;;;;;;13.87;70.55;95393.59;6162566;23;20169;-85
2023/05/11 10:24:21;;;;;;;3.23;2.60;;;;;;;14.20;69.44;95399.41;6165079;23;20182;-86
2023/05/11 10:26:47;;;;;;;2.97;2.67;;;;;;;13.85;71.43;95391.13;6165817;23;20173;-84
2023/05/11 10:29:12;;;;;;;3.43;2.83;;;;;;;13.79;70.07;95396.25;6165964;23;20158;-84
2023/05/11 10:44:13;;;;;;;3.30;2.67;;;;;;;14.12;72.04;95391.63;6140171;23;20205;-85
2023/05/11 10:47:20;;;;;;;5.30;3.00;;;;;;;14.15;69.80;95399.13;6158853;23;20244;-84
2023/05/11 10:50:32;;;;;;;3.30;3.00;;;;;;;14.38;69.21;95394.72;6151858;23;20189;-84
2023/05/11 10:53:25;;;;;;;4.40;2.90;;;;;;;13.89;69.80;95389.81;6196047;23;20555;-83
2023/05/11 10:56:33;;;;;;;3.00;2.70;;;;;;;13.47;72.84;95392.78;6194435;23;20150;-85
2023/05/11 10:59:16;;;;;;;3.43;3.17;;;;;;;13.67;69.69;95385.34;6135725;23;20248;-84
2023/05/11 11:01:42;;;;;;;3.73;2.77;;;;;;;13.89;71.64;95381.19;6129832;23;20163;-86
2023/05/11 11:04:13;;;;;;;4.23;2.90;;;;;;;14.01;67.64;95379.78;6133621;23;20857;-85
2023/05/11 11:06:41;;;;;;;3.17;2.47;;;;;;;14.15;69.72;95380.84;6133498;23;20214;-84
2023/05/11 11:09:14;;;;;;;3.10;2.80;;;;;;;14.27;67.94;95382.06;6133899;23;20506;-83
2023/05/11 11:11:44;;;;;;;4.10;2.90;;;;;;;14.56;67.82;95385.78;6109987;23;20222;-83
2023/05/11 11:14:13;;;;;;;3.33;3.03;;;;;;;14.30;69.61;95384.31;6110077;23;20640;-85
2023/05/11 11:16:39;;;;;;;4.80;3.03;;;;;;;14.09;67.59;95384.16;6134900;23;20163;-83
2023/05/11 11:19:30;;;;;;;3.00;2.70;;;;;;;14.56;67.84;95378.75;6158948;23;20226;-82
2023/05/11 11:22:07;;;;;;;4.30;2.87;;;;;;;14.68;66.10;95376.56;6132088;23;20166;-84
2023/05/11 11:24:38;;;;;;;4.77;2.80;;;;;;;14.99;65.11;95379.84;6130877;23;20171;-84
2023/05/11 11:27:07;;;;;;;4.07;2.83;;;;;;;14.88;66.36;95377.66;6133751;23;20167;-83
2023/05/11 11:29:34;;;;;;;5.57;2.80;;;;;;;14.91;64.44;95381.72;6136864;23;20183;-82
2023/05/11 11:32:23;;;;;;;2.47;2.30;;;;;;;14.98;62.39;95375.59;6107973;23;20155;-84
2023/05/11 11:34:54;;;;;;;3.10;2.40;;;;;;;14.70;63.65;95372.78;6143616;23;20240;-85
2023/05/11 11:37:21;;;;;;;4.20;2.53;;;;;;;15.24;63.35;95376.97;6167696;23;20150;-85
2023/05/11 11:39:48;;;;;;;2.80;2.47;;;;;;;15.36;61.24;95375.53;6217329;23;20615;-85
2023/05/11 11:42:40;;;;;;;3.43;2.43;;;;;;;16.18;60.69;95377.13;6193055;23;20161;-86
2023/05/11 11:45:26;;;;;;;4.13;2.30;;;;;;;15.74;59.58;95372.81;6102712;23;20184;-86
2023/05/11 11:48:37;;;;;;;2.53;2.25;;;;;;;16.07;58.34;95378.41;6101444;23;20985;-84
2023/05/11 11:55:11;;;;;;;3.65;2.38;;;;;;;16.10;57.65;95371.00;6126012;23;20281;-85
2023/05/11 11:57:51;;;;;;;3.13;2.22;;;;;;;16.37;57.38;95371.28;6100546;23;20164;-86
2023/05/11 12:00:22;;;;;;;3.78;2.33;;;;;;;15.86;57.72;95376.59;6102845;23;20199;-85
2023/05/11 12:02:54;;;;;;;3.20;2.78;;;;;;;16.17;56.46;95378.09;6077813;23;20195;-84
2023/05/11 12:05:50;;;;;;;3.20;2.28;;;;;;;16.76;56.96;95378.69;6077132;23;20300;-86
2023/05/11 12:08:59;;;;;;;2.53;1.90;;;;;;;16.48;54.96;95369.94;6101471;23;20619;-85
2023/05/11 12:11:50;;;;;;;2.22;2.03;;;;;;;16.58;55.23;95370.44;6104406;23;20534;-85
2023/05/11 12:14:55;;;;;;;4.00;2.60;;;;;;;16.20;55.70;95375.13;6079379;23;20825;-85